Time;durP1;ratioP1;P1;durP2;ratioP2;P2;SDS_P1;SDS_P2;PMS_P1;PMS_P2;Temp;Humidity;BMP_temperature;BMP_pressure;BME280_temperature;BME280_humidity;BME280_pressure;Samples;Min_cycle;Max_cycle;Signal;HPM_P1;HPM_P2
2021/01/05 00:01:18;;;;;;;1.70;1.60;;;2.80;98.20;;;;;;5031597;28;20511;-77
2021/01/05 00:03:45;;;;;;;1.73;1.63;;;2.80;98.20;;;;;;5032841;28;20481;-77
2021/01/05 00:06:11;;;;;;;1.60;1.50;;;2.80;98.20;;;;;;5032380;28;20865;-77
2021/01/05 00:08:39;;;;;;;1.70;1.57;;;2.80;98.20;;;;;;5032706;28;20484;-77
2021/01/05 00:11:05;;;;;;;1.70;1.50;;;2.80;98.20;;;;;;5032184;28;20492;-77
2021/01/05 00:13:32;;;;;;;1.70;1.40;;;2.80;98.20;;;;;;5030877;28;20470;-78
2021/01/05 00:15:59;;;;;;;1.70;1.50;;;2.80;98.20;;;;;;5028790;28;20697;-78
2021/01/05 00:18:26;;;;;;;1.80;1.70;;;2.90;98.20;;;;;;5032654;28;20538;-78
2021/01/05 00:20:52;;;;;;;1.80;1.70;;;2.90;98.20;;;;;;5038204;28;20475;-80
2021/01/05 00:23:19;;;;;;;1.67;1.50;;;2.90;98.20;;;;;;5027438;28;20757;-78
2021/01/05 00:25:45;;;;;;;1.70;1.60;;;2.90;98.20;;;;;;5032311;28;20471;-77
2021/01/05 00:28:12;;;;;;;1.70;1.50;;;2.90;98.20;;;;;;5033147;28;20795;-77
2021/01/05 00:30:40;;;;;;;1.67;1.40;;;2.90;98.20;;;;;;5032488;28;20495;-77
2021/01/05 00:33:08;;;;;;;1.63;1.50;;;2.90;98.20;;;;;;5032217;28;20460;-77
2021/01/05 00:35:37;;;;;;;1.67;1.50;;;2.90;98.20;;;;;;5038478;28;20498;-78
2021/01/05 00:38:04;;;;;;;1.63;1.40;;;2.90;98.20;;;;;;5036309;28;20471;-77
2021/01/05 00:40:31;;;;;;;1.67;1.47;;;2.90;98.20;;;;;;5037568;28;20545;-77
2021/01/05 00:42:58;;;;;;;1.63;1.50;;;2.90;98.20;;;;;;5037874;28;20766;-77
2021/01/05 00:45:29;;;;;;;1.63;1.40;;;2.90;98.20;;;;;;5037206;28;20471;-77
2021/01/05 00:47:56;;;;;;;1.67;1.40;;;2.90;98.20;;;;;;5035561;28;20735;-77
2021/01/05 00:50:24;;;;;;;1.63;1.40;;;2.90;98.20;;;;;;5040848;28;20873;-77
2021/01/05 00:52:50;;;;;;;1.70;1.50;;;2.80;98.20;;;;;;5040273;28;20484;-77
2021/01/05 00:55:17;;;;;;;1.70;1.50;;;2.80;98.20;;;;;;5035918;28;20494;-78
2021/01/05 00:57:44;;;;;;;1.70;1.50;;;2.90;98.20;;;;;;5036547;28;20513;-80
2021/01/05 01:00:14;;;;;;;1.80;1.70;;;2.90;98.20;;;;;;5033837;28;20487;-77
2021/01/05 01:02:40;;;;;;;1.60;1.40;;;2.90;98.20;;;;;;5032823;28;20542;-77
2021/01/05 01:05:08;;;;;;;25.83;9.00;;;2.80;98.20;;;;;;5034671;28;20466;-77
2021/01/05 01:07:36;;;;;;;1.70;1.60;;;2.80;98.20;;;;;;5033221;28;20459;-77
2021/01/05 01:10:03;;;;;;;1.70;1.50;;;2.90;98.20;;;;;;5033481;28;20925;-77
2021/01/05 01:12:30;;;;;;;1.67;1.50;;;2.80;98.20;;;;;;5036257;28;20460;-77
2021/01/05 01:14:56;;;;;;;1.60;1.40;;;2.80;98.20;;;;;;5036157;28;20966;-77
2021/01/05 01:17:24;;;;;;;1.70;1.50;;;2.80;98.20;;;;;;5034668;28;20463;-77
2021/01/05 01:19:51;;;;;;;1.70;1.60;;;2.80;98.20;;;;;;5042089;28;20487;-77
2021/01/05 01:22:18;;;;;;;1.70;1.40;;;2.80;98.20;;;;;;5036063;28;20483;-78
2021/01/05 01:24:45;;;;;;;1.63;1.50;;;2.90;98.20;;;;;;5035288;28;20971;-78
2021/01/05 01:27:12;;;;;;;1.63;1.40;;;2.90;98.20;;;;;;5037102;28;20463;-76
2021/01/05 01:29:38;;;;;;;1.70;1.50;;;2.90;98.20;;;;;;5035952;28;20560;-75
2021/01/05 01:32:05;;;;;;;1.70;1.60;;;2.90;98.20;;;;;;5035944;28;20503;-77
2021/01/05 01:34:32;;;;;;;1.63;1.40;;;2.90;98.20;;;;;;5036423;28;21369;-76
2021/01/05 01:37:00;;;;;;;1.63;1.40;;;2.90;98.20;;;;;;5037715;28;20598;-76
2021/01/05 01:39:29;;;;;;;1.70;1.47;;;2.90;98.20;;;;;;5035588;28;20504;-76
2021/01/05 01:41:57;;;;;;;1.70;1.50;;;2.90;98.20;;;;;;5038316;28;20528;-76
2021/01/05 01:44:26;;;;;;;1.70;1.50;;;2.80;98.20;;;;;;5036604;28;20490;-76
2021/01/05 01:47:05;;;;;;;1.73;1.63;;;2.90;98.20;;;;;;5038242;28;20577;-76
2021/01/05 01:49:32;;;;;;;1.73;1.63;;;2.80;98.20;;;;;;5038867;28;20515;-78
2021/01/05 01:51:58;;;;;;;1.60;1.40;;;2.80;98.20;;;;;;5038116;28;20498;-77
2021/01/05 01:54:51;;;;;;;1.70;1.60;;;2.80;98.20;;;;;;5037216;28;20518;-76
2021/01/05 01:57:59;;;;;;;1.90;1.80;;;2.80;98.20;;;;;;5034831;28;20502;-77
2021/01/05 02:00:35;;;;;;;1.60;1.40;;;2.80;98.20;;;;;;5026408;28;20525;-77
2021/01/05 02:03:40;;;;;;;1.77;1.67;;;2.80;98.20;;;;;;5035330;28;20487;-78
2021/01/05 02:06:17;;;;;;;1.70;1.50;;;2.80;98.20;;;;;;5030414;28;20502;-78
2021/01/05 02:08:59;;;;;;;1.70;1.50;;;2.80;98.20;;;;;;5033238;28;20491;-78
2021/01/05 02:11:45;;;;;;;1.60;1.40;;;2.80;98.20;;;;;;5035731;28;20476;-77
2021/01/05 02:14:33;;;;;;;1.70;1.50;;;2.80;98.20;;;;;;5032159;28;20555;-76
2021/01/05 02:17:44;;;;;;;1.70;1.50;;;2.80;98.20;;;;;;5032831;28;20464;-77
2021/01/05 02:20:15;;;;;;;1.63;1.40;;;2.80;98.20;;;;;;5034377;28;21005;-78
2021/01/05 02:22:51;;;;;;;1.70;1.53;;;2.80;98.20;;;;;;5036761;28;20518;-77
2021/01/05 02:25:27;;;;;;;1.70;1.40;;;2.80;98.20;;;;;;5023893;28;20463;-77
2021/01/05 02:28:01;;;;;;;1.63;1.40;;;2.80;98.20;;;;;;5027616;28;20484;-77
2021/01/05 02:30:35;;;;;;;1.70;1.50;;;2.80;98.20;;;;;;5030487;28;20757;-78
2021/01/05 02:33:11;;;;;;;1.70;1.60;;;2.80;98.20;;;;;;5036119;28;20551;-78
2021/01/05 02:36:09;;;;;;;1.70;1.47;;;2.80;98.20;;;;;;5033895;28;20459;-78
2021/01/05 02:38:52;;;;;;;1.67;1.47;;;2.80;98.20;;;;;;5029348;28;20554;-77
2021/01/05 02:41:37;;;;;;;1.60;1.40;;;2.80;98.20;;;;;;5033501;28;20575;-77
2021/01/05 02:44:25;;;;;;;1.60;1.50;;;2.80;98.20;;;;;;5033345;28;20542;-78
2021/01/05 02:46:56;;;;;;;1.67;1.47;;;2.80;98.20;;;;;;5032018;28;20502;-77
2021/01/05 02:49:32;;;;;;;1.70;1.40;;;2.80;98.20;;;;;;5035668;28;20494;-76
2021/01/05 02:52:32;;;;;;;1.70;1.57;;;2.80;98.20;;;;;;5036737;28;20455;-77
2021/01/05 02:55:22;;;;;;;1.63;1.40;;;2.80;98.20;;;;;;5001155;28;20504;-77
2021/01/05 02:57:56;;;;;;;1.70;1.60;;;2.80;98.20;;;;;;4981321;28;20458;-77
2021/01/05 03:00:58;;;;;;;1.60;1.40;;;2.80;98.20;;;;;;5034208;28;20521;-76
2021/01/05 03:03:42;;;;;;;1.70;1.40;;;2.80;98.20;;;;;;5034538;28;20495;-77
2021/01/05 03:06:20;;;;;;;1.70;1.50;;;2.80;98.20;;;;;;5031317;28;20772;-77
2021/01/05 03:08:59;;;;;;;1.70;1.50;;;2.80;98.20;;;;;;5032371;28;20460;-77
2021/01/05 03:11:33;;;;;;;2.40;2.20;;;2.80;98.20;;;;;;5032949;28;20486;-77
2021/01/05 03:14:05;;;;;;;1.70;1.50;;;2.80;98.20;;;;;;5035673;28;20483;-77
2021/01/05 03:16:37;;;;;;;1.70;1.50;;;2.80;98.20;;;;;;5033244;28;20459;-77
2021/01/05 03:19:12;;;;;;;1.60;1.40;;;2.80;98.20;;;;;;5039168;28;20467;-77
2021/01/05 03:21:43;;;;;;;1.60;1.37;;;2.80;98.20;;;;;;5037422;28;20487;-77
2021/01/05 03:24:13;;;;;;;1.70;1.50;;;2.80;98.20;;;;;;5034914;28;20465;-78
2021/01/05 03:26:44;;;;;;;1.70;1.47;;;2.80;98.20;;;;;;5032332;28;20475;-78
2021/01/05 03:29:12;;;;;;;1.70;1.50;;;2.80;98.20;;;;;;5038043;28;20483;-78
2021/01/05 03:31:45;;;;;;;1.60;1.40;;;2.80;98.20;;;;;;5020060;28;20464;-78
2021/01/05 03:34:12;;;;;;;1.70;1.50;;;2.80;98.20;;;;;;5021600;28;20445;-79
2021/01/05 03:36:38;;;;;;;1.63;1.40;;;2.80;98.20;;;;;;5039370;28;20486;-78
2021/01/05 03:39:05;;;;;;;1.67;1.40;;;2.80;98.20;;;;;;5035991;28;20463;-78
2021/01/05 03:41:33;;;;;;;1.60;1.50;;;2.80;98.20;;;;;;5038023;28;20470;-78
2021/01/05 03:43:59;;;;;;;1.67;1.43;;;2.80;98.20;;;;;;5038988;28;20470;-77
2021/01/05 03:46:30;;;;;;;1.60;1.50;;;2.80;98.20;;;;;;5035308;28;20950;-78
2021/01/05 03:48:58;;;;;;;1.70;1.50;;;2.80;98.20;;;;;;5040459;28;20515;-78
2021/01/05 03:51:25;;;;;;;1.67;1.50;;;2.80;98.20;;;;;;5058644;28;20482;-77
2021/01/05 03:53:51;;;;;;;1.70;1.50;;;2.80;98.20;;;;;;5034255;28;20796;-77
2021/01/05 03:56:18;;;;;;;1.60;1.40;;;2.80;98.20;;;;;;5032367;28;20503;-79
2021/01/05 03:58:44;;;;;;;1.63;1.40;;;2.80;98.20;;;;;;5033408;28;20476;-78
2021/01/05 04:01:11;;;;;;;1.67;1.50;;;2.80;98.20;;;;;;5032756;28;20519;-77
2021/01/05 04:03:40;;;;;;;1.60;1.40;;;2.80;98.20;;;;;;5032211;28;20578;-78
2021/01/05 04:06:07;;;;;;;1.60;1.40;;;2.80;98.20;;;;;;5034485;28;20499;-78
2021/01/05 04:08:34;;;;;;;1.67;1.47;;;2.80;98.20;;;;;;5028232;28;20470;-78
2021/01/05 04:11:00;;;;;;;1.63;1.40;;;2.80;98.20;;;;;;5032678;28;20990;-77
2021/01/05 04:13:27;;;;;;;1.70;1.40;;;2.80;98.20;;;;;;5031090;28;20488;-77
2021/01/05 04:15:53;;;;;;;1.70;1.50;;;2.80;98.20;;;;;;5031317;28;20502;-77
2021/01/05 04:18:20;;;;;;;1.70;1.40;;;2.80;98.20;;;;;;5035620;28;20513;-77
2021/01/05 04:20:47;;;;;;;1.70;1.50;;;2.80;98.20;;;;;;5036497;28;20548;-78
2021/01/05 04:23:14;;;;;;;1.70;1.50;;;2.80;98.20;;;;;;5032100;28;20495;-78
2021/01/05 04:25:41;;;;;;;1.77;1.67;;;2.80;98.20;;;;;;5029612;28;20459;-78
2021/01/05 04:28:07;;;;;;;1.60;1.40;;;2.80;98.20;;;;;;5030108;28;20461;-77
2021/01/05 04:30:36;;;;;;;1.63;1.43;;;2.80;98.20;;;;;;5030544;28;20495;-77
2021/01/05 04:33:05;;;;;;;1.70;1.57;;;2.80;98.20;;;;;;5031361;28;20465;-78
2021/01/05 04:35:32;;;;;;;1.70;1.50;;;2.80;98.20;;;;;;5030017;28;20467;-77
2021/01/05 04:37:59;;;;;;;1.70;1.60;;;2.80;98.20;;;;;;5032963;28;20491;-77
2021/01/05 04:40:32;;;;;;;1.60;1.40;;;2.80;98.20;;;;;;5031103;28;20495;-77
2021/01/05 04:43:17;;;;;;;1.63;1.50;;;2.90;98.20;;;;;;5032847;28;20598;-78
2021/01/05 04:45:51;;;;;;;1.63;1.47;;;2.90;98.20;;;;;;5031360;28;20500;-78
2021/01/05 04:48:31;;;;;;;1.67;1.50;;;2.90;98.20;;;;;;5034858;28;20537;-78
2021/01/05 04:51:01;;;;;;;1.60;1.30;;;2.90;98.20;;;;;;5033547;28;20523;-78
2021/01/05 04:53:33;;;;;;;1.70;1.60;;;2.90;98.20;;;;;;5030844;28;20518;-78
2021/01/05 04:56:05;;;;;;;1.70;1.40;;;2.90;98.20;;;;;;5030031;28;20482;-77
2021/01/05 04:58:38;;;;;;;1.70;1.40;;;2.90;98.20;;;;;;5030577;28;20488;-77
2021/01/05 05:01:12;;;;;;;1.70;1.60;;;2.90;98.20;;;;;;5035603;28;20487;-77
2021/01/05 05:03:59;;;;;;;1.80;1.70;;;2.90;98.20;;;;;;5033010;28;20568;-77
2021/01/05 05:06:39;;;;;;;1.60;1.40;;;2.90;98.20;;;;;;5035595;28;20491;-77
2021/01/05 05:09:23;;;;;;;1.60;1.40;;;2.90;98.20;;;;;;5036104;28;20479;-78
2021/01/05 05:12:38;;;;;;;1.60;1.40;;;2.90;98.20;;;;;;5033751;28;20467;-79
2021/01/05 05:15:37;;;;;;;1.63;1.40;;;2.90;98.20;;;;;;5037180;28;20463;-76
2021/01/05 05:18:27;;;;;;;1.70;1.50;;;2.90;98.20;;;;;;5033450;28;20499;-76
2021/01/05 05:21:22;;;;;;;1.60;1.40;;;2.90;98.20;;;;;;5034655;28;20479;-78
2021/01/05 05:24:14;;;;;;;1.67;1.40;;;2.90;98.20;;;;;;5035968;28;20579;-77
2021/01/05 05:26:49;;;;;;;1.70;1.43;;;3.00;98.20;;;;;;5034687;28;20470;-77
2021/01/05 05:29:37;;;;;;;1.70;1.60;;;3.00;98.20;;;;;;5040414;28;21002;-76
2021/01/05 05:32:13;;;;;;;1.60;1.50;;;3.00;98.20;;;;;;5039095;28;20466;-77
2021/01/05 05:34:52;;;;;;;1.60;1.40;;;2.90;98.20;;;;;;5037143;28;20460;-77
2021/01/05 05:37:26;;;;;;;1.70;1.40;;;2.90;98.20;;;;;;5036421;28;20460;-78
2021/01/05 05:40:18;;;;;;;1.70;1.50;;;2.90;98.20;;;;;;5039385;28;20514;-77
2021/01/05 05:43:10;;;;;;;1.70;1.60;;;2.90;98.20;;;;;;5036708;28;20559;-76
2021/01/05 05:45:42;;;;;;;1.70;1.40;;;2.90;98.20;;;;;;5035059;28;20463;-77
2021/01/05 05:48:17;;;;;;;1.60;1.40;;;3.00;98.20;;;;;;5034581;28;21395;-76
2021/01/05 05:50:52;;;;;;;1.70;1.43;;;3.00;98.20;;;;;;5037123;28;20491;-76
2021/01/05 05:53:24;;;;;;;1.60;1.40;;;3.00;98.20;;;;;;5037122;28;20946;-78
2021/01/05 05:55:58;;;;;;;1.60;1.40;;;3.00;98.20;;;;;;5036099;28;20471;-77
2021/01/05 05:58:28;;;;;;;1.63;1.40;;;3.00;98.20;;;;;;5035614;28;20467;-77
2021/01/05 06:01:00;;;;;;;2.10;1.90;;;3.00;98.20;;;;;;5033672;28;20483;-77
2021/01/05 06:03:27;;;;;;;1.70;1.50;;;3.00;98.20;;;;;;5038281;28;20500;-77
2021/01/05 06:05:54;;;;;;;1.60;1.40;;;3.00;98.20;;;;;;5036133;28;20472;-77
2021/01/05 06:08:22;;;;;;;1.70;1.50;;;3.00;98.20;;;;;;5031896;28;20456;-77
2021/01/05 06:10:50;;;;;;;1.67;1.40;;;3.00;98.20;;;;;;5032833;28;20491;-77
2021/01/05 06:13:17;;;;;;;1.70;1.40;;;3.00;98.20;;;;;;5034878;28;20994;-76
2021/01/05 06:15:44;;;;;;;2.10;1.93;;;3.00;98.20;;;;;;5041340;28;20456;-76
2021/01/05 06:18:13;;;;;;;1.60;1.40;;;3.00;98.20;;;;;;5044587;28;20467;-76
2021/01/05 06:20:40;;;;;;;1.70;1.60;;;3.00;98.20;;;;;;5044167;28;20497;-76
2021/01/05 06:23:07;;;;;;;1.60;1.40;;;3.00;98.20;;;;;;5044523;28;20480;-77
2021/01/05 06:25:34;;;;;;;1.60;1.40;;;3.00;98.20;;;;;;5043223;28;20463;-76
2021/01/05 06:28:01;;;;;;;1.63;1.40;;;3.00;98.20;;;;;;5044160;28;20520;-77
2021/01/05 06:30:27;;;;;;;1.70;1.50;;;3.00;98.20;;;;;;5042436;28;20494;-78
2021/01/05 06:32:55;;;;;;;1.70;1.60;;;3.00;98.20;;;;;;5038207;28;20464;-76
2021/01/05 06:35:23;;;;;;;1.63;1.40;;;3.00;98.20;;;;;;5043193;28;20470;-77
2021/01/05 06:37:51;;;;;;;1.63;1.50;;;3.00;98.20;;;;;;5040197;28;20498;-77
2021/01/05 06:40:20;;;;;;;1.70;1.50;;;3.00;98.20;;;;;;5043472;28;21131;-78
2021/01/05 06:42:47;;;;;;;1.70;1.40;;;3.00;98.20;;;;;;5034129;28;20475;-75
2021/01/05 06:45:17;;;;;;;1.67;1.40;;;3.00;98.20;;;;;;5038971;28;20468;-77
2021/01/05 06:47:44;;;;;;;1.60;1.40;;;3.00;98.20;;;;;;5018697;28;20465;-77
2021/01/05 06:50:12;;;;;;;1.70;1.50;;;3.00;98.20;;;;;;5032312;28;20480;-77
2021/01/05 06:52:40;;;;;;;1.70;1.40;;;3.00;98.20;;;;;;5035679;28;20488;-77
2021/01/05 06:55:07;;;;;;;1.60;1.40;;;3.00;98.20;;;;;;5028229;28;20504;-77
2021/01/05 06:57:34;;;;;;;1.63;1.40;;;3.00;98.20;;;;;;5023394;28;20475;-78
2021/01/05 07:00:00;;;;;;;1.70;1.40;;;3.00;98.20;;;;;;5031340;28;20492;-78
2021/01/05 07:02:27;;;;;;;1.67;1.50;;;3.00;98.20;;;;;;5035156;28;20529;-77
2021/01/05 07:04:53;;;;;;;1.67;1.50;;;3.00;98.20;;;;;;5038136;28;20542;-76
2021/01/05 07:07:20;;;;;;;1.60;1.40;;;3.00;98.20;;;;;;5040454;28;20579;-76
2021/01/05 07:09:47;;;;;;;1.67;1.40;;;3.00;98.20;;;;;;5025171;28;20489;-77
2021/01/05 07:12:14;;;;;;;1.60;1.40;;;3.00;98.20;;;;;;5019961;28;20491;-76
2021/01/05 07:14:40;;;;;;;1.67;1.40;;;3.00;98.20;;;;;;5035839;28;20579;-76
2021/01/05 07:17:07;;;;;;;1.63;1.40;;;3.00;98.20;;;;;;5055589;28;20784;-78
2021/01/05 07:19:33;;;;;;;1.70;1.40;;;3.00;98.20;;;;;;5050202;28;20513;-77
2021/01/05 07:22:00;;;;;;;1.60;1.40;;;3.00;98.20;;;;;;5057486;28;20487;-77
2021/01/05 07:24:26;;;;;;;1.70;1.60;;;3.00;98.20;;;;;;5057420;28;20471;-77
2021/01/05 07:26:53;;;;;;;1.70;1.50;;;3.00;98.20;;;;;;5057755;28;20459;-77
2021/01/05 07:29:21;;;;;;;1.60;1.40;;;3.00;98.20;;;;;;5029946;28;20507;-77
2021/01/05 07:31:49;;;;;;;2.47;2.20;;;3.00;98.20;;;;;;5018953;28;20453;-77
2021/01/05 07:34:16;;;;;;;1.70;1.50;;;3.00;98.20;;;;;;5020967;28;20471;-76
2021/01/05 07:36:45;;;;;;;1.70;1.50;;;3.00;98.20;;;;;;5039493;28;20517;-78
2021/01/05 07:39:14;;;;;;;1.63;1.47;;;3.00;98.20;;;;;;5037155;28;20471;-76
2021/01/05 07:41:41;;;;;;;1.70;1.53;;;3.00;98.20;;;;;;5036414;28;20463;-76
2021/01/05 07:44:08;;;;;;;1.70;1.60;;;3.00;98.20;;;;;;5038473;28;20467;-77
2021/01/05 07:46:34;;;;;;;1.60;1.40;;;3.00;98.20;;;;;;5044046;28;20471;-76
2021/01/05 07:49:01;;;;;;;3.63;3.43;;;3.10;98.20;;;;;;5035650;28;20463;-77
2021/01/05 07:51:28;;;;;;;1.67;1.40;;;3.10;98.20;;;;;;5035661;28;20643;-77
2021/01/05 07:53:54;;;;;;;1.67;1.47;;;3.10;98.20;;;;;;5034871;28;20475;-76
2021/01/05 07:56:21;;;;;;;1.67;1.37;;;3.10;98.20;;;;;;5027347;28;20483;-77
2021/01/05 07:58:47;;;;;;;1.60;1.40;;;3.10;98.20;;;;;;5021329;28;20564;-76
2021/01/05 08:01:14;;;;;;;1.60;1.30;;;3.10;98.20;;;;;;5029963;28;20490;-76
2021/01/05 08:03:41;;;;;;;1.60;1.33;;;3.10;98.20;;;;;;5038574;28;20495;-76
2021/01/05 08:06:09;;;;;;;1.67;1.40;;;3.10;98.20;;;;;;5039443;28;20464;-77
2021/01/05 08:08:36;;;;;;;1.67;1.40;;;3.10;98.20;;;;;;5034572;28;20465;-75
2021/01/05 08:11:03;;;;;;;1.60;1.40;;;3.10;98.20;;;;;;5038488;28;20487;-77
2021/01/05 08:13:29;;;;;;;1.70;1.60;;;3.10;98.20;;;;;;5043179;28;20455;-76
2021/01/05 08:15:55;;;;;;;1.70;1.50;;;3.10;98.20;;;;;;5035991;28;20475;-77
2021/01/05 08:18:23;;;;;;;1.67;1.40;;;3.10;98.20;;;;;;5034270;28;20495;-75
2021/01/05 08:20:54;;;;;;;2.30;2.10;;;3.20;98.20;;;;;;5040379;28;20484;-76
2021/01/05 08:23:20;;;;;;;1.70;1.50;;;3.20;98.20;;;;;;5032427;28;20500;-76
2021/01/05 08:25:47;;;;;;;1.70;1.50;;;3.20;98.20;;;;;;5039088;28;20462;-76
2021/01/05 08:28:13;;;;;;;1.60;1.40;;;3.20;98.20;;;;;;5031871;28;20514;-75
2021/01/05 08:30:40;;;;;;;1.60;1.40;;;3.20;98.20;;;;;;5028186;28;20495;-75
2021/01/05 08:33:08;;;;;;;1.60;1.40;;;3.20;98.20;;;;;;5038122;28;20475;-77
2021/01/05 08:35:36;;;;;;;1.63;1.47;;;3.20;98.20;;;;;;5036482;28;20888;-76
2021/01/05 08:38:03;;;;;;;1.70;1.50;;;3.20;98.20;;;;;;5033969;28;20526;-76
2021/01/05 08:40:33;;;;;;;1.70;1.60;;;3.20;98.20;;;;;;5037695;28;20502;-76
2021/01/05 08:43:03;;;;;;;1.67;1.40;;;3.20;98.20;;;;;;5040039;28;20510;-75
2021/01/05 08:45:29;;;;;;;1.60;1.37;;;3.20;98.20;;;;;;5026675;28;20979;-77
2021/01/05 08:47:56;;;;;;;1.60;1.40;;;3.20;98.20;;;;;;5031700;28;20464;-74
2021/01/05 08:50:28;;;;;;;1.70;1.50;;;3.20;98.20;;;;;;5044587;28;20494;-77
2021/01/05 08:52:56;;;;;;;1.60;1.30;;;3.20;98.20;;;;;;5033207;28;20468;-76
2021/01/05 08:55:22;;;;;;;1.63;1.40;;;3.30;98.20;;;;;;5020927;28;20465;-76
2021/01/05 08:57:49;;;;;;;1.67;1.40;;;3.30;98.20;;;;;;5033166;28;20499;-76
2021/01/05 09:00:16;;;;;;;1.70;1.50;;;3.30;98.20;;;;;;5035372;28;20490;-76
2021/01/05 09:02:43;;;;;;;1.70;1.50;;;3.30;98.20;;;;;;5033075;28;20490;-76
2021/01/05 09:05:11;;;;;;;1.60;1.40;;;3.40;98.20;;;;;;5036421;28;20506;-76
2021/01/05 09:07:38;;;;;;;1.60;1.50;;;3.40;98.20;;;;;;5035914;28;21032;-76
2021/01/05 09:10:08;;;;;;;1.70;1.53;;;3.40;98.20;;;;;;5031499;28;20487;-78
2021/01/05 09:12:36;;;;;;;1.60;1.30;;;3.40;98.20;;;;;;5035096;28;20472;-76
2021/01/05 09:15:04;;;;;;;1.67;1.43;;;3.30;98.20;;;;;;5037383;28;20666;-78
2021/01/05 09:17:31;;;;;;;1.67;1.40;;;3.30;98.20;;;;;;5033740;28;20476;-78
2021/01/05 09:19:57;;;;;;;1.63;1.40;;;3.40;98.20;;;;;;5042054;28;21100;-77
2021/01/05 09:22:25;;;;;;;1.60;1.40;;;3.40;98.20;;;;;;5040963;28;20487;-77
2021/01/05 09:24:51;;;;;;;1.67;1.40;;;3.40;98.20;;;;;;5033786;28;20482;-78
2021/01/05 09:27:19;;;;;;;1.60;1.30;;;3.40;98.20;;;;;;5034083;28;20475;-77
2021/01/05 09:29:45;;;;;;;1.70;1.50;;;3.40;98.20;;;;;;5033323;28;20643;-76
2021/01/05 09:32:12;;;;;;;1.70;1.40;;;3.40;98.20;;;;;;5036493;28;20455;-76
2021/01/05 09:34:38;;;;;;;1.67;1.47;;;3.40;98.20;;;;;;5034391;28;20978;-77
2021/01/05 09:37:06;;;;;;;1.60;1.40;;;3.40;98.20;;;;;;5030884;28;20496;-77
2021/01/05 09:39:33;;;;;;;1.70;1.50;;;3.40;98.20;;;;;;5036098;28;20488;-77
2021/01/05 09:42:01;;;;;;;1.70;1.60;;;3.40;98.20;;;;;;5037394;28;20447;-77
2021/01/05 09:44:29;;;;;;;1.70;1.50;;;3.40;98.20;;;;;;5033736;28;20540;-76
2021/01/05 09:46:59;;;;;;;1.60;1.33;;;3.40;98.20;;;;;;5029784;28;20467;-78
2021/01/05 09:49:27;;;;;;;1.70;1.47;;;3.40;98.20;;;;;;5035747;28;20487;-77
2021/01/05 09:52:00;;;;;;;1.63;1.40;;;3.40;98.20;;;;;;5031811;28;20472;-77
2021/01/05 09:54:27;;;;;;;1.70;1.50;;;3.40;98.20;;;;;;5035604;28;21073;-76
2021/01/05 09:56:55;;;;;;;1.67;1.50;;;3.40;98.20;;;;;;5029649;28;20471;-75
2021/01/05 09:59:23;;;;;;;1.60;1.30;;;3.40;98.20;;;;;;5034555;28;20475;-77
2021/01/05 10:01:50;;;;;;;1.60;1.33;;;3.40;98.20;;;;;;5031373;28;20502;-77
2021/01/05 10:04:16;;;;;;;1.70;1.40;;;3.50;98.20;;;;;;5027371;28;20468;-77
2021/01/05 10:06:43;;;;;;;1.67;1.40;;;3.50;98.20;;;;;;5030001;28;20464;-78
2021/01/05 10:09:10;;;;;;;1.60;1.30;;;3.50;98.20;;;;;;5030155;28;20475;-78
2021/01/05 10:11:38;;;;;;;1.63;1.30;;;3.50;98.20;;;;;;5035863;28;20477;-77
2021/01/05 10:14:05;;;;;;;1.70;1.60;;;3.50;98.20;;;;;;5034340;28;20512;-76
2021/01/05 10:16:32;;;;;;;1.70;1.50;;;3.50;98.20;;;;;;5035112;28;20463;-78
2021/01/05 10:19:00;;;;;;;1.60;1.40;;;3.50;98.20;;;;;;5041203;28;20455;-76
2021/01/05 10:21:34;;;;;;;1.70;1.50;;;3.50;98.20;;;;;;5027624;28;20575;-77
2021/01/05 10:24:01;;;;;;;1.67;1.40;;;3.50;98.20;;;;;;5032402;28;20546;-76
2021/01/05 10:26:28;;;;;;;1.60;1.30;;;3.50;98.20;;;;;;5033902;28;20486;-77
2021/01/05 10:28:54;;;;;;;1.63;1.47;;;3.50;98.20;;;;;;5033684;28;20500;-77
2021/01/05 10:31:21;;;;;;;1.70;1.40;;;3.50;98.20;;;;;;5034124;28;20491;-76
2021/01/05 10:33:47;;;;;;;1.70;1.57;;;3.50;98.20;;;;;;5029231;28;20462;-76
2021/01/05 10:36:18;;;;;;;1.70;1.50;;;3.50;98.20;;;;;;5031911;28;21174;-77
2021/01/05 10:38:48;;;;;;;1.60;1.30;;;3.50;98.20;;;;;;5033823;28;20768;-77
2021/01/05 10:41:15;;;;;;;1.60;1.40;;;3.50;98.20;;;;;;5034468;28;20488;-77
2021/01/05 10:43:43;;;;;;;1.70;1.60;;;3.50;98.20;;;;;;5037282;28;21007;-76
2021/01/05 10:46:09;;;;;;;1.63;1.40;;;3.50;98.20;;;;;;5031905;28;20964;-77
2021/01/05 10:48:36;;;;;;;1.60;1.30;;;3.50;98.20;;;;;;5027973;28;20495;-78
2021/01/05 10:51:04;;;;;;;1.63;1.40;;;3.50;98.20;;;;;;5044475;28;20487;-78
2021/01/05 10:53:34;;;;;;;1.60;1.40;;;3.50;98.20;;;;;;5033177;28;20468;-77
2021/01/05 10:56:00;;;;;;;1.70;1.40;;;3.60;98.20;;;;;;5029803;28;20779;-77
2021/01/05 10:58:27;;;;;;;1.70;1.40;;;3.60;98.20;;;;;;5030859;28;20475;-76
2021/01/05 11:00:53;;;;;;;1.70;1.50;;;3.60;98.20;;;;;;5030761;28;20511;-77
2021/01/05 11:03:20;;;;;;;1.60;1.40;;;3.60;98.20;;;;;;5020498;28;20484;-76
2021/01/05 11:05:46;;;;;;;1.60;1.40;;;3.60;98.20;;;;;;5018362;28;20468;-77
2021/01/05 11:08:13;;;;;;;1.60;1.40;;;3.60;98.20;;;;;;5029349;28;20471;-77
2021/01/05 11:10:40;;;;;;;1.67;1.47;;;3.70;98.20;;;;;;5033968;28;20798;-76
2021/01/05 11:13:07;;;;;;;1.60;1.40;;;3.70;98.20;;;;;;5029262;28;20488;-76
2021/01/05 11:15:33;;;;;;;1.80;1.70;;;3.60;98.20;;;;;;5032332;28;20460;-78
2021/01/05 11:18:00;;;;;;;1.60;1.40;;;3.70;98.20;;;;;;5035114;28;20475;-75
2021/01/05 11:20:26;;;;;;;1.60;1.40;;;3.70;98.20;;;;;;5033580;28;20528;-77
2021/01/05 11:22:53;;;;;;;1.60;1.30;;;3.70;98.20;;;;;;5032345;28;20476;-76
2021/01/05 11:25:20;;;;;;;1.60;1.40;;;3.70;98.20;;;;;;5027706;28;20804;-78
2021/01/05 11:27:48;;;;;;;1.60;1.40;;;3.70;98.20;;;;;;5027611;28;20526;-76
2021/01/05 11:30:21;;;;;;;1.60;1.30;;;3.70;98.20;;;;;;5027545;28;20546;-76
2021/01/05 11:32:48;;;;;;;1.63;1.40;;;3.70;98.20;;;;;;5030393;28;20460;-77
2021/01/05 11:35:17;;;;;;;1.63;1.40;;;3.70;98.20;;;;;;5034440;28;20842;-77
2021/01/05 11:37:44;;;;;;;1.67;1.40;;;3.70;98.20;;;;;;5035252;28;20580;-76
2021/01/05 11:40:11;;;;;;;1.60;1.40;;;3.70;98.20;;;;;;5030494;28;20504;-78
2021/01/05 11:42:38;;;;;;;1.67;1.30;;;3.70;98.20;;;;;;5029167;28;20487;-76
2021/01/05 11:45:08;;;;;;;1.60;1.30;;;3.70;98.20;;;;;;5035894;28;20491;-77
2021/01/05 11:47:34;;;;;;;1.63;1.40;;;3.70;98.20;;;;;;5033515;28;20491;-78
2021/01/05 11:50:02;;;;;;;1.60;1.30;;;3.70;98.20;;;;;;5033588;28;20935;-76
2021/01/05 11:52:28;;;;;;;1.60;1.40;;;3.70;98.20;;;;;;5035424;28;20798;-76
2021/01/05 11:54:55;;;;;;;1.70;1.40;;;3.70;98.20;;;;;;5032748;28;20456;-75
2021/01/05 11:57:21;;;;;;;1.70;1.50;;;3.70;98.20;;;;;;5031032;28;20467;-76
2021/01/05 11:59:48;;;;;;;1.70;1.40;;;3.70;98.20;;;;;;5028092;28;20735;-79
2021/01/05 12:02:15;;;;;;;1.70;1.47;;;3.70;98.20;;;;;;5030082;28;20468;-76
2021/01/05 12:04:41;;;;;;;1.63;1.40;;;3.70;98.20;;;;;;5029880;28;20468;-76
2021/01/05 12:07:08;;;;;;;1.60;1.30;;;3.70;98.20;;;;;;5036073;28;20985;-76
2021/01/05 12:09:35;;;;;;;1.63;1.40;;;3.70;98.20;;;;;;5026673;28;20494;-77
2021/01/05 12:12:04;;;;;;;1.70;1.40;;;3.70;98.20;;;;;;5026279;28;20909;-77
2021/01/05 12:14:30;;;;;;;1.67;1.43;;;3.70;98.20;;;;;;5032643;28;20701;-76
2021/01/05 12:16:59;;;;;;;7.03;2.53;;;3.70;98.20;;;;;;5031140;28;20471;-78
2021/01/05 12:19:28;;;;;;;1.60;1.30;;;3.70;98.20;;;;;;5033728;28;20517;-77
2021/01/05 12:21:56;;;;;;;1.70;1.53;;;3.60;98.20;;;;;;5033783;28;20766;-78
2021/01/05 12:24:28;;;;;;;1.60;1.30;;;3.60;98.20;;;;;;5026799;28;20492;-80
2021/01/05 12:26:56;;;;;;;2.77;2.57;;;3.60;98.20;;;;;;5026475;28;20471;-77
2021/01/05 12:29:24;;;;;;;1.70;1.50;;;3.60;98.20;;;;;;5031089;28;20498;-78
2021/01/05 12:31:53;;;;;;;1.63;1.40;;;3.60;98.20;;;;;;5031434;28;20464;-77
2021/01/05 12:34:22;;;;;;;1.67;1.30;;;3.50;98.20;;;;;;5030902;28;20989;-77
2021/01/05 12:36:50;;;;;;;1.60;1.30;;;3.50;98.20;;;;;;5032290;28;20917;-78
2021/01/05 12:39:19;;;;;;;1.67;1.50;;;3.60;98.20;;;;;;5029313;28;20544;-78
2021/01/05 12:41:46;;;;;;;1.63;1.37;;;3.60;98.20;;;;;;5027215;28;20479;-77
2021/01/05 12:44:15;;;;;;;1.70;1.47;;;3.60;98.20;;;;;;5024624;28;21021;-77
2021/01/05 12:46:42;;;;;;;1.60;1.40;;;3.60;98.20;;;;;;5030070;28;20981;-77
2021/01/05 12:49:09;;;;;;;1.70;1.40;;;3.50;98.20;;;;;;5027699;28;20482;-76
2021/01/05 12:51:37;;;;;;;1.70;1.43;;;3.50;98.20;;;;;;5026954;28;20456;-77
2021/01/05 12:54:06;;;;;;;1.63;1.40;;;3.50;98.20;;;;;;5028624;28;21320;-79
2021/01/05 12:56:33;;;;;;;1.70;1.40;;;3.50;98.20;;;;;;5025185;28;20459;-77
2021/01/05 12:59:00;;;;;;;1.70;1.40;;;3.50;98.20;;;;;;5025841;28;20464;-79
2021/01/05 13:01:26;;;;;;;1.70;1.50;;;3.50;98.20;;;;;;5029275;28;20490;-77
2021/01/05 13:03:53;;;;;;;1.63;1.40;;;3.50;98.20;;;;;;5031171;28;20531;-77
2021/01/05 13:06:19;;;;;;;1.70;1.40;;;3.50;98.20;;;;;;5026284;28;20468;-77
2021/01/05 13:08:48;;;;;;;1.70;1.40;;;3.50;98.20;;;;;;5022786;28;20802;-77
2021/01/05 13:11:18;;;;;;;1.73;1.63;;;3.50;98.20;;;;;;5031326;28;20488;-78
2021/01/05 13:13:44;;;;;;;1.60;1.40;;;3.50;98.20;;;;;;5030241;28;20469;-77